Aeroporto :
LOGIN :

Iscrizione | Disclaimer

   EN    FR    IT 

 










Sommario :    VFR   VFR Marginale   IFR   IFR Intensivo   IFR Molto Intensivo
Visibilità : 
Base nubi : 
>= 8 km
>= 3000ft
5 / 8 km
1000 / 3000 ft
1500m / 5 km
500 / 1000 ft
800 / 1500m
200 / 500 ft
< 800m
< 200 ft
Simboli :   Temporali  Nebbia  Neve Forte  Precipitazioni Forti  Vento > 20 kt
SIGMETs :   Varie  Temporali  Ghiacco  Turbolenza  Onda orograficha  Ceneri Vulcaniche






- Altitudine del aeroporto : 267 ft


EGDR - Culdrose Navy

ULTIMO METAR :
  • 271617Z 07014KT 9999 SCT004 BKN007 09/09 Q1012 TEMPO 2000 BKN002 RMK YLO2 TEMPO AMB

METARs OBSOLETI :
  • 271550Z 08014KT 9999 SCT005 BKN008 09/08 Q1012 NOSIG RMK YLO1 YLO1
  • 271450Z 08014KT 9999 OVC006 09/08 Q1013 YLO1 NOSIG RMK YLO1 YLO1
  • 271424Z 08015KT 9999 SCT006 BKN008 09/08 Q1013 NOSIG RMK YLO1 YLO1

TAF TAF EGDR
Valido dal 27 a 15 ore il 28 a 00 ore UTC


271442Z 2715/2724 08015KT 9999 BKN008
TEMPO 2715/2721 4000 -RADZ BKN006
PROB30
TEMPO 2716/2721 2000 BR BKN002
PROB30 2717/2721 0500 DZ FG BKN000



MetMap, La meteo Aeronautica in un colpo d'occhio ! - Copyright ORBIFLY Dicembre 2007 - Disclaimer

ORBIFLY MET'MAP TEAM :

Programmazione e sviluppo : Alexandra Zaïnal
Concezione : Baudouin d'Aumeries
Aiuto per la programmazione : Marc-Olivier Méhu
Supporto tecnico e logistico : Manuel Goepfert
Aiuto per la traduzione : Arnaldo La Scala

Contatto : metmap@orbifly.com




FONTI E CREDITI :

   NOAA